Terminal Aerodrome Forecast
Issued by NWS Missoula, MT

Home | Current Version | Previous Version | Text Only | Print | Product List | Glossary On
Versions: 1 2 3 4 5 6 7 8 9 10 11 12 13 14
289
FTUS45 KMSO 261126
TAFGPI
TAF
KGPI 261126Z 2612/2712 16009KT 2SM -SN BR OVC020
      TEMPO 2618/2621 1SM -SN BR OVC010
     FM262100 05012G18KT 4SM -SN OVC030
     FM270100 04008G18KT P6SM VCSH OVC050=

USA.gov is the U.S. government's official web portal to all federal, state and local government web resources and services.